createdAt,value
2022-09-10T00:01:56.062Z,14.77
2022-09-10T00:04:22.955Z,14.76
2022-09-10T00:06:49.765Z,14.74
2022-09-10T00:09:16.645Z,14.73
2022-09-10T00:11:43.416Z,14.71
2022-09-10T00:14:20.684Z,14.70
2022-09-10T00:16:48.584Z,14.68
2022-09-10T00:19:16.810Z,14.70
2022-09-10T00:21:44.046Z,14.67
2022-09-10T00:24:11.511Z,14.73
2022-09-10T00:26:39.426Z,14.73
2022-09-10T00:29:09.725Z,14.76
2022-09-10T00:31:37.952Z,14.80
2022-09-10T00:34:05.386Z,14.81
2022-09-10T00:36:36.538Z,14.84
2022-09-10T00:39:16.851Z,14.86
2022-09-10T00:41:47.218Z,14.88
2022-09-10T00:44:38.888Z,14.87
2022-09-10T00:47:07.710Z,14.83
2022-09-10T00:49:42.703Z,14.76
2022-09-10T00:52:10.150Z,14.73
2022-09-10T00:54:39.150Z,14.72
2022-09-10T00:57:13.811Z,14.72
2022-09-10T00:59:46.851Z,14.69
2022-09-10T01:02:13.771Z,14.66
2022-09-10T01:04:41.831Z,14.61
2022-09-10T01:07:10.910Z,14.65
2022-09-10T01:09:39.090Z,14.68
2022-09-10T01:12:36.950Z,14.62
2022-09-10T01:15:14.922Z,14.64
2022-09-10T01:17:59.473Z,14.65
2022-09-10T01:20:41.226Z,14.63
2022-09-10T01:23:23.686Z,14.61
2022-09-10T01:26:05.935Z,14.57
2022-09-10T01:28:45.755Z,14.57
2022-09-10T01:31:31.566Z,14.60
2022-09-10T01:34:39.273Z,14.56
2022-09-10T01:37:13.025Z,14.56
2022-09-10T01:39:41.409Z,14.56
2022-09-10T01:42:08.404Z,14.54
2022-09-10T01:44:43.915Z,14.52
2022-09-10T01:47:16.576Z,14.50
2022-09-10T01:50:08.747Z,14.49
2022-09-10T01:53:00.946Z,14.44
2022-09-10T01:56:10.487Z,14.44
2022-09-10T01:58:44.130Z,14.31
2022-09-10T02:01:22.011Z,14.30
2022-09-10T02:03:55.209Z,14.30
2022-09-10T02:06:26.307Z,14.23
2022-09-10T02:08:55.299Z,14.19
2022-09-10T02:11:22.770Z,14.20
2022-09-10T02:13:52.907Z,14.25
2022-09-10T02:16:49.852Z,14.22
2022-09-10T02:19:18.508Z,14.25
2022-09-10T02:21:51.575Z,14.26
2022-09-10T02:24:18.481Z,14.20
2022-09-10T02:26:45.370Z,14.27
2022-09-10T02:29:15.133Z,14.28
2022-09-10T02:31:44.394Z,14.30
2022-09-10T02:34:13.502Z,14.26
2022-09-10T02:36:40.331Z,14.22
2022-09-10T02:39:07.072Z,14.26
2022-09-10T02:41:34.741Z,14.37
2022-09-10T02:44:03.466Z,14.33
2022-09-10T02:46:30.341Z,14.55
2022-09-10T02:48:57.523Z,14.56
2022-09-10T02:51:24.983Z,14.58
2022-09-10T02:53:52.263Z,14.71
2022-09-10T02:56:19.934Z,14.50
2022-09-10T02:58:46.778Z,14.51
2022-09-10T03:01:16.781Z,14.50
2022-09-10T03:03:52.267Z,14.63
2022-09-10T03:06:19.208Z,14.59
2022-09-10T03:08:46.297Z,14.56
2022-09-10T03:11:14.357Z,14.72
2022-09-10T03:13:41.207Z,14.78
2022-09-10T03:16:08.606Z,14.80
2022-09-10T03:18:35.618Z,14.76
2022-09-10T03:21:09.598Z,14.75
2022-09-10T03:23:37.566Z,14.72
2022-09-10T03:26:06.261Z,14.71
2022-09-10T03:28:33.857Z,14.75
2022-09-10T03:31:06.428Z,14.76
2022-09-10T03:33:38.429Z,14.77
2022-09-10T03:36:05.600Z,14.77
2022-09-10T03:38:33.440Z,14.75
2022-09-10T03:41:00.308Z,14.76
2022-09-10T03:43:27.162Z,14.75
2022-09-10T03:45:54.270Z,14.74
2022-09-10T03:48:21.991Z,14.72
2022-09-10T03:50:49.184Z,14.69
2022-09-10T03:53:18.673Z,14.70
2022-09-10T03:55:47.441Z,14.69
2022-09-10T03:58:17.191Z,14.69
2022-09-10T04:00:45.433Z,14.69
2022-09-10T04:03:12.884Z,14.68
2022-09-10T04:05:42.276Z,14.67
2022-09-10T04:08:10.254Z,14.67
2022-09-10T04:10:37.263Z,14.66
2022-09-10T04:13:04.134Z,14.66
2022-09-10T04:15:33.814Z,14.68
2022-09-10T04:18:05.299Z,14.66
2022-09-10T04:20:34.370Z,14.68
2022-09-10T04:23:06.696Z,14.71
2022-09-10T04:25:35.651Z,14.71
2022-09-10T04:28:03.428Z,14.69
2022-09-10T04:30:31.689Z,14.73
2022-09-10T04:33:00.336Z,14.76
2022-09-10T04:35:29.837Z,14.76
2022-09-10T04:37:57.939Z,14.77
2022-09-10T04:40:25.992Z,14.83
2022-09-10T04:42:53.139Z,14.85
2022-09-10T04:45:19.940Z,14.84
2022-09-10T04:47:46.866Z,14.83
2022-09-10T04:50:13.890Z,14.83
2022-09-10T04:53:00.881Z,14.83
2022-09-10T04:55:27.719Z,14.83
2022-09-10T04:57:54.601Z,14.82
2022-09-10T05:00:21.378Z,14.81
2022-09-10T05:02:48.894Z,14.82
2022-09-10T05:05:15.842Z,14.80
2022-09-10T05:07:42.903Z,14.82
2022-09-10T05:10:10.534Z,14.82
2022-09-10T05:12:38.351Z,14.81
2022-09-10T05:15:06.273Z,14.83
2022-09-10T05:17:34.314Z,14.84
2022-09-10T05:20:01.112Z,14.84
2022-09-10T05:22:35.021Z,14.83
2022-09-10T05:25:04.915Z,14.80
2022-09-10T05:27:32.463Z,14.78
2022-09-10T05:29:59.677Z,14.75
2022-09-10T05:32:26.511Z,14.76
2022-09-10T05:34:53.253Z,14.75
2022-09-10T05:37:20.257Z,14.75
2022-09-10T05:39:47.069Z,14.76
2022-09-10T05:42:15.856Z,14.79
2022-09-10T05:44:43.459Z,14.80
2022-09-10T05:47:10.587Z,14.86
2022-09-10T05:49:37.588Z,14.90
2022-09-10T05:52:05.154Z,15.00
2022-09-10T05:54:33.279Z,15.08
2022-09-10T05:57:00.507Z,15.14
2022-09-10T05:59:29.561Z,15.21
2022-09-10T06:01:56.426Z,15.25
2022-09-10T06:04:24.312Z,15.33
2022-09-10T06:06:51.039Z,15.38
2022-09-10T06:09:17.941Z,15.41
2022-09-10T06:11:54.612Z,15.44
2022-09-10T06:14:22.791Z,15.50
2022-09-10T06:16:49.639Z,15.52
2022-09-10T06:19:16.433Z,15.59
2022-09-10T06:21:43.461Z,15.65
2022-09-10T06:24:10.621Z,15.69
2022-09-10T06:26:41.176Z,15.75
2022-09-10T06:29:11.993Z,15.86
2022-09-10T06:31:40.823Z,15.94
2022-09-10T06:34:08.177Z,16.04
2022-09-10T06:36:35.027Z,16.13
2022-09-10T06:39:01.975Z,16.19
2022-09-10T06:41:30.823Z,16.30
2022-09-10T06:44:03.236Z,16.38
2022-09-10T06:47:16.032Z,16.48
2022-09-10T06:49:24.145Z,16.60
2022-09-10T06:51:51.776Z,16.67
2022-09-10T06:54:19.194Z,16.74
2022-09-10T06:56:48.270Z,16.80
2022-09-10T06:59:14.960Z,16.82
2022-09-10T07:01:45.020Z,16.95
2022-09-10T07:04:11.737Z,16.96
2022-09-10T07:06:39.367Z,17.03
2022-09-10T07:09:10.175Z,17.08
2022-09-10T07:11:45.572Z,17.15
2022-09-10T07:14:15.787Z,17.27
2022-09-10T07:16:42.811Z,17.27
2022-09-10T07:19:09.594Z,17.24
2022-09-10T07:21:43.351Z,17.38
2022-09-10T07:24:13.031Z,17.45
2022-09-10T07:26:42.870Z,17.49
2022-09-10T07:29:10.384Z,17.52
2022-09-10T07:31:38.781Z,17.58
2022-09-10T07:34:14.795Z,17.62
2022-09-10T07:36:41.611Z,17.67
2022-09-10T07:39:10.473Z,17.71
2022-09-10T07:41:40.282Z,17.78
2022-09-10T07:44:10.903Z,17.89
2022-09-10T07:46:41.449Z,18.01
2022-09-10T07:49:11.750Z,18.01
2022-09-10T07:51:40.823Z,18.14
2022-09-10T07:54:07.706Z,18.12
2022-09-10T07:56:41.856Z,18.22
2022-09-10T07:59:11.628Z,18.27
2022-09-10T08:01:46.511Z,18.34
2022-09-10T08:04:15.926Z,18.41
2022-09-10T08:06:43.260Z,18.38
2022-09-10T08:09:10.566Z,18.36
2022-09-10T08:11:45.747Z,18.22
2022-09-10T08:14:15.529Z,18.21
2022-09-10T08:16:47.250Z,18.18
2022-09-10T08:19:13.974Z,18.21
2022-09-10T08:21:41.231Z,18.16
2022-09-10T08:24:10.442Z,18.15
2022-09-10T08:26:38.650Z,18.18
2022-09-10T08:29:06.814Z,18.12
2022-09-10T08:31:33.739Z,18.12
2022-09-10T08:34:20.012Z,18.03
2022-09-10T08:36:53.196Z,18.01
2022-09-10T08:39:20.653Z,17.93
2022-09-10T08:41:55.197Z,17.87
2022-09-10T08:44:55.996Z,17.92
2022-09-10T08:47:43.096Z,18.01
2022-09-10T08:50:16.455Z,18.19
2022-09-10T08:52:43.765Z,18.16
2022-09-10T08:55:21.685Z,18.16
2022-09-10T08:57:49.376Z,18.13
2022-09-10T09:00:22.998Z,18.28
2022-09-10T09:03:01.640Z,18.32
2022-09-10T09:05:40.879Z,18.36
2022-09-10T09:08:13.496Z,18.43
2022-09-10T09:10:49.268Z,18.53
2022-09-10T09:13:48.220Z,18.61
2022-09-10T09:16:49.198Z,18.77
2022-09-10T09:19:37.380Z,18.79
2022-09-10T09:22:25.018Z,18.89
2022-09-10T09:25:06.560Z,18.89
2022-09-10T09:27:40.039Z,18.93
2022-09-10T09:30:17.296Z,19.05
2022-09-10T09:32:47.017Z,19.16
2022-09-10T09:35:32.987Z,19.29
2022-09-10T09:38:23.634Z,19.50
2022-09-10T09:40:59.299Z,19.46
2022-09-10T09:43:54.181Z,19.60
2022-09-10T09:46:22.963Z,19.65
2022-09-10T09:48:56.517Z,19.67
2022-09-10T09:51:24.912Z,19.78
2022-09-10T09:54:19.854Z,19.95
2022-09-10T09:56:54.004Z,19.85
2022-09-10T09:59:29.908Z,19.78
2022-09-10T10:02:10.847Z,19.80
2022-09-10T10:05:06.606Z,19.83
2022-09-10T10:07:35.907Z,19.81
2022-09-10T10:10:06.309Z,19.99
2022-09-10T10:12:34.501Z,20.14
2022-09-10T10:15:01.839Z,20.12
2022-09-10T10:17:37.573Z,20.02
2022-09-10T10:20:09.288Z,20.08
2022-09-10T10:22:38.412Z,20.03
2022-09-10T10:25:26.931Z,19.99
2022-09-10T10:40:13.216Z,19.41
2022-09-10T10:43:10.941Z,19.55
2022-09-10T10:45:45.343Z,19.68
2022-09-10T10:48:25.522Z,19.75
2022-09-10T10:51:23.057Z,19.92
2022-09-10T10:54:04.306Z,19.97
2022-09-10T10:56:37.728Z,19.84
2022-09-10T10:59:16.595Z,19.85
2022-09-10T11:02:29.658Z,19.88
2022-09-10T11:05:06.219Z,19.97
2022-09-10T11:07:42.980Z,20.08
2022-09-10T11:10:20.070Z,20.14
2022-09-10T11:12:55.608Z,20.14
2022-09-10T11:15:45.608Z,20.21
2022-09-10T11:18:30.357Z,20.16
2022-09-10T11:21:32.899Z,20.14
2022-09-10T11:24:28.739Z,20.06
2022-09-10T11:27:18.769Z,19.98
2022-09-10T11:30:05.206Z,19.95
2022-09-10T11:32:41.143Z,19.97
2022-09-10T11:35:14.131Z,20.00
2022-09-10T11:37:52.833Z,19.98
2022-09-10T11:40:37.704Z,19.94
2022-09-10T11:43:11.222Z,19.94
2022-09-10T11:45:59.981Z,20.00
2022-09-10T11:48:35.130Z,20.07
2022-09-10T11:51:08.316Z,20.20
2022-09-10T11:53:35.992Z,20.23
2022-09-10T11:56:24.607Z,20.33
2022-09-10T11:59:20.823Z,20.40
2022-09-10T12:02:19.988Z,20.37
2022-09-10T12:04:59.125Z,20.13
2022-09-10T12:07:51.626Z,19.92
2022-09-10T12:10:31.902Z,19.79
2022-09-10T12:12:59.176Z,19.68
2022-09-10T12:15:29.032Z,19.66
2022-09-10T12:18:03.429Z,19.66
2022-09-10T12:20:34.526Z,19.65
2022-09-10T12:23:01.968Z,19.67
2022-09-10T12:25:34.155Z,19.69
2022-09-10T12:28:05.299Z,19.73
2022-09-10T12:30:32.110Z,19.68
2022-09-10T12:33:21.649Z,19.64
2022-09-10T12:35:50.399Z,19.64
2022-09-10T12:38:44.908Z,19.61
2022-09-10T12:41:33.001Z,19.61
2022-09-10T12:44:01.799Z,19.66
2022-09-10T12:46:29.803Z,19.67
2022-09-10T12:48:56.567Z,19.76
2022-09-10T12:51:46.354Z,19.94
2022-09-10T12:54:37.672Z,20.10
2022-09-10T12:57:21.533Z,20.24
2022-09-10T13:00:03.521Z,20.37
2022-09-10T13:02:35.527Z,20.51
2022-09-10T13:05:17.314Z,20.70
2022-09-10T13:07:45.553Z,20.46
2022-09-10T13:10:25.203Z,20.36
2022-09-10T13:12:55.514Z,20.32
2022-09-10T13:15:34.404Z,20.17
2022-09-10T13:18:01.195Z,19.96
2022-09-10T13:20:31.877Z,19.81
2022-09-10T13:23:37.375Z,19.81
2022-09-10T13:26:28.961Z,19.93
2022-09-10T13:28:55.716Z,20.04
2022-09-10T13:31:29.960Z,20.15
2022-09-10T13:34:15.151Z,20.28
2022-09-10T13:37:05.189Z,20.32
2022-09-10T13:40:18.135Z,20.31
2022-09-10T13:43:03.189Z,20.25
2022-09-10T13:45:41.967Z,20.19
2022-09-10T13:48:16.673Z,20.11
2022-09-10T13:50:59.073Z,20.19
2022-09-10T13:53:28.869Z,20.21
2022-09-10T13:55:59.941Z,20.20
2022-09-10T13:58:31.693Z,20.32
2022-09-10T14:01:04.685Z,20.33
2022-09-10T14:03:34.664Z,20.38
2022-09-10T14:06:02.353Z,20.46
2022-09-10T14:08:33.900Z,20.42
2022-09-10T14:11:13.015Z,20.26
2022-09-10T14:14:12.445Z,20.28
2022-09-10T14:16:55.605Z,20.27
2022-09-10T14:19:22.542Z,20.24
2022-09-10T14:21:50.594Z,20.24
2022-09-10T14:24:48.944Z,20.18
2022-09-10T14:27:26.624Z,20.21
2022-09-10T14:30:15.998Z,20.20
2022-09-10T14:32:42.705Z,20.25
2022-09-10T14:35:42.088Z,20.24
2022-09-10T14:38:38.037Z,20.25
2022-09-10T14:41:18.295Z,20.30
2022-09-10T14:43:45.108Z,20.43
2022-09-10T14:46:33.881Z,20.53
2022-09-10T14:49:00.696Z,20.46
2022-09-10T14:51:27.863Z,20.43
2022-09-10T14:53:57.099Z,20.36
2022-09-10T14:56:39.185Z,20.24
2022-09-10T14:59:24.698Z,20.22
2022-09-10T15:01:51.865Z,20.26
2022-09-10T15:04:21.911Z,20.19
2022-09-10T15:06:48.650Z,20.26
2022-09-10T15:09:15.358Z,20.28
2022-09-10T15:11:57.392Z,20.22
2022-09-10T15:14:24.599Z,20.15
2022-09-10T15:16:51.811Z,20.01
2022-09-10T15:19:25.200Z,19.85
2022-09-10T15:21:52.074Z,19.75
2022-09-10T15:24:22.066Z,19.65
2022-09-10T15:26:49.807Z,19.64
2022-09-10T15:29:17.434Z,19.52
2022-09-10T15:31:44.536Z,19.48
2022-09-10T15:34:11.666Z,19.49
2022-09-10T15:36:40.265Z,19.52
2022-09-10T15:39:08.714Z,19.53
2022-09-10T15:41:35.485Z,19.54
2022-09-10T15:44:03.355Z,19.61
2022-09-10T15:46:30.119Z,19.68
2022-09-10T15:48:58.305Z,19.71
2022-09-10T15:51:25.149Z,19.73
2022-09-10T15:53:53.631Z,19.69
2022-09-10T15:56:22.178Z,19.62
2022-09-10T15:58:50.399Z,19.54
2022-09-10T16:01:18.085Z,19.49
2022-09-10T16:03:51.928Z,19.43
2022-09-10T16:06:19.801Z,19.33
2022-09-10T16:08:53.099Z,19.20
2022-09-10T16:11:20.593Z,19.07
2022-09-10T16:13:47.321Z,19.01
2022-09-10T16:16:18.533Z,18.94
2022-09-10T16:18:45.749Z,18.87
2022-09-10T16:21:26.989Z,18.81
2022-09-10T16:23:56.759Z,18.75
2022-09-10T16:26:26.171Z,18.73
2022-09-10T16:28:57.622Z,18.69
2022-09-10T16:31:27.443Z,18.66
2022-09-10T16:33:56.762Z,18.62
2022-09-10T16:36:23.675Z,18.61
2022-09-10T16:38:55.585Z,18.56
2022-09-10T16:41:23.456Z,18.54
2022-09-10T16:43:50.905Z,18.47
2022-09-10T16:46:18.497Z,18.43
2022-09-10T16:48:46.029Z,18.34
2022-09-10T16:51:17.557Z,18.12
2022-09-10T16:53:46.807Z,17.97
2022-09-10T16:56:16.245Z,17.88
2022-09-10T16:58:47.139Z,17.77
2022-09-10T17:01:15.080Z,17.66
2022-09-10T17:03:44.126Z,17.58
2022-09-10T17:06:22.541Z,17.51
2022-09-10T17:08:49.328Z,17.45
2022-09-10T17:11:17.979Z,17.35
2022-09-10T17:13:45.114Z,17.27
2022-09-10T17:16:21.016Z,17.17
2022-09-10T17:18:54.638Z,17.09
2022-09-10T17:21:21.401Z,17.04
2022-09-10T17:23:48.241Z,16.99
2022-09-10T17:26:15.030Z,16.96
2022-09-10T17:28:41.929Z,16.90
2022-09-10T17:31:08.840Z,16.84
2022-09-10T17:33:35.814Z,16.83
2022-09-10T17:36:04.164Z,16.71
2022-09-10T17:38:32.159Z,16.68
2022-09-10T17:41:02.146Z,16.60
2022-09-10T17:43:33.785Z,16.61
2022-09-10T17:46:08.138Z,16.62
2022-09-10T17:48:36.045Z,16.61
2022-09-10T17:51:03.693Z,16.52
2022-09-10T17:53:31.112Z,16.50
2022-09-10T17:56:06.125Z,16.44
2022-09-10T17:58:33.731Z,16.43
2022-09-10T18:01:03.466Z,16.42
2022-09-10T18:03:30.470Z,16.43
2022-09-10T18:06:03.398Z,16.42
2022-09-10T18:08:32.220Z,16.42
2022-09-10T18:11:08.567Z,16.40
2022-09-10T18:13:37.259Z,16.38
2022-09-10T18:16:06.618Z,16.39
2022-09-10T18:18:34.616Z,16.39
2022-09-10T18:21:34.710Z,16.40
2022-09-10T18:24:07.293Z,16.35
2022-09-10T18:26:36.803Z,16.29
2022-09-10T18:29:07.201Z,16.27
2022-09-10T18:31:37.892Z,16.24
2022-09-10T18:34:08.264Z,16.25
2022-09-10T18:36:35.269Z,16.23
2022-09-10T18:39:04.689Z,16.17
2022-09-10T18:41:34.855Z,16.14
2022-09-10T18:44:05.485Z,16.10
2022-09-10T18:46:33.364Z,16.06
2022-09-10T18:49:01.907Z,16.02
2022-09-10T18:51:30.486Z,15.98
2022-09-10T18:54:00.250Z,15.97
2022-09-10T18:56:31.170Z,15.96
2022-09-10T18:59:00.730Z,15.96
2022-09-10T19:01:30.016Z,15.96
2022-09-10T19:03:58.251Z,15.93
2022-09-10T19:06:31.801Z,15.95
2022-09-10T19:09:05.743Z,15.98
2022-09-10T19:11:36.740Z,15.97
2022-09-10T19:14:13.688Z,16.00
2022-09-10T19:16:40.772Z,16.01
2022-09-10T19:19:08.733Z,16.02
2022-09-10T19:21:35.744Z,16.07
2022-09-10T19:24:03.812Z,16.09
2022-09-10T19:26:34.959Z,16.09
2022-09-10T19:29:03.595Z,16.10
2022-09-10T19:31:33.376Z,16.12
2022-09-10T19:34:06.440Z,16.11
2022-09-10T19:36:34.785Z,16.11
2022-09-10T19:39:08.282Z,16.14
2022-09-10T19:41:36.915Z,16.15
2022-09-10T19:44:03.923Z,16.14
2022-09-10T19:46:31.082Z,16.16
2022-09-10T19:48:59.804Z,16.13
2022-09-10T19:51:29.726Z,16.15
2022-09-10T19:53:57.645Z,16.19
2022-09-10T19:56:28.345Z,16.17
2022-09-10T19:58:56.328Z,16.21
2022-09-10T20:01:25.990Z,16.23
2022-09-10T20:03:54.331Z,16.23
2022-09-10T20:06:23.837Z,16.23
2022-09-10T20:08:50.748Z,16.26
2022-09-10T20:11:21.577Z,16.29
2022-09-10T20:13:49.427Z,16.29
2022-09-10T20:16:17.716Z,16.28
2022-09-10T20:18:44.621Z,16.28
2022-09-10T20:21:24.479Z,16.29
2022-09-10T20:23:53.510Z,16.28
2022-09-10T20:26:31.660Z,16.26
2022-09-10T20:29:04.299Z,16.29
2022-09-10T20:31:33.505Z,16.25
2022-09-10T20:34:02.501Z,16.28
2022-09-10T20:36:30.696Z,16.29
2022-09-10T20:38:58.312Z,16.26
2022-09-10T20:41:26.184Z,16.29
2022-09-10T20:43:53.675Z,16.31
2022-09-10T20:46:22.338Z,16.30
2022-09-10T20:48:52.132Z,16.28
2022-09-10T20:51:19.942Z,16.28
2022-09-10T20:53:47.713Z,16.30
2022-09-10T20:56:17.922Z,16.27
2022-09-10T20:58:47.003Z,16.27
2022-09-10T21:01:22.480Z,16.25
2022-09-10T21:03:51.815Z,16.25
2022-09-10T21:06:20.120Z,16.27
2022-09-10T21:08:48.354Z,16.23
2022-09-10T21:11:18.663Z,16.24
2022-09-10T21:13:50.965Z,16.26
2022-09-10T21:16:20.969Z,16.23
2022-09-10T21:18:54.303Z,16.23
2022-09-10T21:21:23.786Z,16.22
2022-09-10T21:23:52.766Z,16.20
2022-09-10T21:26:21.510Z,16.16
2022-09-10T21:28:49.347Z,16.16
2022-09-10T21:31:16.183Z,16.12
2022-09-10T21:33:43.587Z,16.14
2022-09-10T21:36:12.827Z,16.10
2022-09-10T21:38:39.768Z,16.14
2022-09-10T21:41:11.924Z,16.14
2022-09-10T21:43:43.329Z,16.13
2022-09-10T21:46:11.537Z,16.13
2022-09-10T21:48:38.350Z,16.12
2022-09-10T21:51:07.512Z,16.10
2022-09-10T21:53:35.665Z,16.09
2022-09-10T21:56:04.561Z,16.08
2022-09-10T21:58:34.760Z,16.08
2022-09-10T22:01:02.370Z,16.08
2022-09-10T22:03:31.110Z,16.10
2022-09-10T22:06:07.356Z,16.08
2022-09-10T22:08:35.769Z,16.08
2022-09-10T22:11:08.643Z,16.08
2022-09-10T22:13:36.253Z,16.09
2022-09-10T22:16:03.134Z,16.08
2022-09-10T22:18:29.942Z,16.11
2022-09-10T22:20:58.263Z,16.10
2022-09-10T22:23:25.114Z,16.09
2022-09-10T22:25:51.875Z,16.10
2022-09-10T22:28:18.673Z,16.10
2022-09-10T22:30:45.403Z,16.10
2022-09-10T22:33:12.314Z,16.10
2022-09-10T22:35:39.081Z,16.08
2022-09-10T22:38:05.917Z,16.10
2022-09-10T22:40:33.389Z,16.12
2022-09-10T22:43:00.174Z,16.13
2022-09-10T22:45:26.928Z,16.12
2022-09-10T22:47:53.757Z,16.11
2022-09-10T22:50:20.536Z,16.08
2022-09-10T22:52:47.338Z,16.07
2022-09-10T22:55:14.120Z,16.07
2022-09-10T22:57:41.229Z,16.03
2022-09-10T23:00:09.349Z,16.03
2022-09-10T23:02:36.113Z,16.04
2022-09-10T23:05:02.977Z,16.04
2022-09-10T23:07:29.699Z,16.06
2022-09-10T23:09:56.526Z,16.07
2022-09-10T23:12:24.249Z,16.04
2022-09-10T23:14:51.068Z,16.09
2022-09-10T23:17:21.952Z,16.09
2022-09-10T23:19:49.531Z,16.10
2022-09-10T23:22:16.369Z,16.07
2022-09-10T23:24:43.180Z,16.06
2022-09-10T23:27:10.080Z,16.07
2022-09-10T23:29:36.820Z,16.04
2022-09-10T23:32:03.699Z,16.03
2022-09-10T23:34:30.484Z,16.02
2022-09-10T23:36:57.345Z,16.01
2022-09-10T23:39:24.713Z,15.99
2022-09-10T23:41:55.811Z,15.98
2022-09-10T23:44:23.223Z,15.96
2022-09-10T23:46:50.467Z,15.96
2022-09-10T23:49:17.287Z,15.96
2022-09-10T23:51:44.126Z,15.94
2022-09-10T23:54:11.732Z,15.93
2022-09-10T23:56:38.966Z,15.93
2022-09-10T23:59:05.895Z,15.92
